Amity, Georgia
Current Conditions -  °F | °C
As of 4:55 PM on Saturday 25 Oct 2014 (Local Time) from KHQU Reporting Station
Clear Clear  
Wind Chill: 76°   Ceiling: Unl
Heat Index: 76°   Visibility: 10mi
Dew Point: 51°   Wind: 7mph
Humidity: 43%   Direction: 280°W
Pressure: 30.03"   Gusts: NA
Location:  33.7816°N, 82.4511°W
Report Text: KHQU 252055Z AUTO 28006KT 10SM CLR 24/11 A3003 RMK AO1 T02420108
Loading
Personal Weather Stations






























Interactive Weather Map
Tropical Storm Tracking
New forecast layout! Learn more

10-Day Weather Forecast

Advertisements
Track Severe Weather on mobile